WetterOnline ( https://www.wetteronline.de )

Wetter aktuell Hamburg

Aktuelles Wetter: Hamburg/Fuhlsbüttel (15m)

6-stündlich | Neueste Meldungen
Ortszeit Temperatur Wetter
Mi, 26.06. 20:00 19.0° C fast wolkenlos
Mi, 26.06. 14:00 26.0° C fast wolkenlos
Mi, 26.06. 8:00 25.9° C leicht bewölkt
Mi, 26.06. 2:00 21.6° C leicht bewölkt
Di, 25.06. 20:00 31.4° C leicht bewölkt
Di, 25.06. 14:00 31.9° C fast wolkenlos
Di, 25.06. 8:00 20.5° C leicht bewölkt
Di, 25.06. 2:00 19.1° C leicht bewölkt
Ortszeit Temperatur Wetter
Mi, 26.06. 22:20 17° C bewölkt
Mi, 26.06. 22:10 16.7° C -
Mi, 26.06. 22:00 16.9° C bewölkt
Mi, 26.06. 21:50 16.9° C -
Mi, 26.06. 21:40 17.0° C -
Mi, 26.06. 21:30 17.3° C -
Mi, 26.06. 21:00 17.6° C wolkig
Mi, 26.06. 20:30 18.3° C -
Mi, 26.06. 20:00 19.0° C fast wolkenlos
Mi, 26.06. 19:30 19.9° C -
Mi, 26.06. 19:00 20.4° C fast wolkenlos
Ortszeit Relative Feuchte Sichtweite
Mi, 26.06. 20:00 71% 40 km
Mi, 26.06. 14:00 60% 30 km
Mi, 26.06. 8:00 63% 30 km
Mi, 26.06. 2:00 77% 40 km
Di, 25.06. 20:00 36% 40 km
Di, 25.06. 14:00 34% 40 km
Di, 25.06. 8:00 59% 50 km
Di, 25.06. 2:00 61% 50 km
Ortszeit Relative Feuchte Sichtweite
Mi, 26.06. 22:20 72% >10 km
Mi, 26.06. 22:10 74% -
Mi, 26.06. 22:00 73% 40 km
Mi, 26.06. 21:50 73% -
Mi, 26.06. 21:40 73% -
Mi, 26.06. 21:30 73% 30 km
Mi, 26.06. 21:00 73% 40 km
Mi, 26.06. 20:30 74% 12 km
Mi, 26.06. 20:00 71% 40 km
Mi, 26.06. 19:30 69% 10 km
Mi, 26.06. 19:00 70% 30 km
Ortszeit Niederschlagsmenge Niederschlagsart
Mi, 26.06. 20:00 0.0 l/m2 in 12 Std. -
Mi, 26.06. 14:00 0.0 l/m2 in 6 Std. -
Mi, 26.06. 8:00 0.0 l/m2 in 12 Std. -
Mi, 26.06. 2:00 0.0 l/m2 in 6 Std. -
Di, 25.06. 20:00 0.0 l/m2 in 12 Std. -
Di, 25.06. 14:00 1 l/m2 in 6 Std. -
Di, 25.06. 8:00 0.0 l/m2 in 12 Std. -
Di, 25.06. 2:00 0.0 l/m2 in 6 Std. -
Ortszeit Niederschlagsmenge Niederschlagsart
Mi, 26.06. 22:20 keine Meldung -
Mi, 26.06. 22:10 keine Meldung -
Mi, 26.06. 22:00 0.0 l/m2 in 1 Std. -
Mi, 26.06. 21:50 keine Meldung -
Mi, 26.06. 21:40 keine Meldung -
Mi, 26.06. 21:30 0.0 l/m2 in 1 Std. -
Mi, 26.06. 21:00 0.0 l/m2 in 1 Std. -
Mi, 26.06. 20:30 0.0 l/m2 in 1 Std. -
Mi, 26.06. 20:00 0.0 l/m2 in 1 Std. -
Mi, 26.06. 19:30 0.0 l/m2 in 1 Std. -
Mi, 26.06. 19:00 0.0 l/m2 in 1 Std. -
Ortszeit Stärke Spitze Richtung
km/h Bft. km/h Grad Sektor
Mi, 26.06. 20:00 26 4 46 290° W
Mi, 26.06. 14:00 24 4 41 280° W
Mi, 26.06. 8:00 7 2 11 250° W
Mi, 26.06. 2:00 4 1 29 60° NO
Di, 25.06. 20:00 19 3 39 140° SO
Di, 25.06. 14:00 19 3 31 130° SO
Di, 25.06. 8:00 14 3 22 110° O
Di, 25.06. 2:00 11 2 32 110° O
Ortszeit Stärke Spitze Richtung
km/h Bft. km/h Grad Sektor
Mi, 26.06. 22:20 30 5 - 300° NW
Mi, 26.06. 22:10 30 5 - 300° NW
Mi, 26.06. 22:00 25 4 40 300° NW
Mi, 26.06. 21:50 25 4 - 300° NW
Mi, 26.06. 21:40 28 4 - 300° NW
Mi, 26.06. 21:30 28 4 39 310° NW
Mi, 26.06. 21:00 26 4 39 300° NW
Mi, 26.06. 20:30 22 4 36 300° NW
Mi, 26.06. 20:00 26 4 41 290° W
Mi, 26.06. 19:30 25 4 40 300° NW
Mi, 26.06. 19:00 29 5 43 290° W
Ortszeit Untergrenze Bedeckung Gattung
total tief tief mittel hoch
Mi, 26.06. 20:00 600 m 2/8 1/8 Cu - Ci
Mi, 26.06. 14:00 960 m 1/8 1/8 Cu - -
Mi, 26.06. 8:00 2400 m 4/8 2/8 Sc - Ci
Mi, 26.06. 2:00 9000 m 3/8 0/8 - - Ci
Di, 25.06. 20:00 4800 m 7/8 1/8 - Ac Ci
Di, 25.06. 14:00 10500 m 1/8 0/8 - - Ci
Di, 25.06. 8:00 9000 m 7/8 0/8 - - Ci
Di, 25.06. 2:00 9000 m 5/8 0/8 - - Ci
Ortszeit Bedeckungsgrad in Achtel und Wolkenuntergrenze
Mi, 26.06. 22:20 5-7(600m)
Mi, 26.06. 22:10 -
Mi, 26.06. 22:00 7(600m)
Mi, 26.06. 21:50 -
Mi, 26.06. 21:40 -
Mi, 26.06. 21:30 -
Mi, 26.06. 21:00 5(630m)
Mi, 26.06. 20:30 -
Mi, 26.06. 20:00 1(600m)
Mi, 26.06. 19:30 -
Mi, 26.06. 19:00 1(570m)
Ortszeit Luftdruck NN (hPa) Tendenz (hPa in 3 Std.)
Mi, 26.06. 20:00 1024 + 0,7
Mi, 26.06. 14:00 1022 + 1,9
Mi, 26.06. 8:00 1019 + 0,5
Mi, 26.06. 2:00 1019 - 0,2
Di, 25.06. 20:00 1018 - 0,4
Di, 25.06. 14:00 1020 - 0,9
Di, 25.06. 8:00 1021 - 0,7
Di, 25.06. 2:00 1022 + 0,4
Ortszeit Luftdruck NN (hPa) Tendenz (hPa in 3 Std.)
Mi, 26.06. 22:20 1024 keine Meldung
Mi, 26.06. 22:10 1025 keine Meldung
Mi, 26.06. 22:00 1025 + 1,1
Mi, 26.06. 21:50 1025 keine Meldung
Mi, 26.06. 21:40 1025 keine Meldung
Mi, 26.06. 21:30 1025 + 1,1
Mi, 26.06. 21:00 1024 + 1,2
Mi, 26.06. 20:30 1024 + 1,0
Mi, 26.06. 20:00 1024 + 0,7
Mi, 26.06. 19:30 1024 + 1,1
Mi, 26.06. 19:00 1024 + 1,0
Ortszeit Schneehöhe (cm)
Mi, 26.06. 20:00 0
Mi, 26.06. 14:00 0
Mi, 26.06. 8:00 0
Mi, 26.06. 2:00 0
Di, 25.06. 20:00 0
Di, 25.06. 14:00 0
Di, 25.06. 8:00 0
Di, 25.06. 2:00 0
Ortszeit Schneehöhe (cm)
Mi, 26.06. 22:20 -
Mi, 26.06. 22:10 -
Mi, 26.06. 22:00 -
Mi, 26.06. 21:50 -
Mi, 26.06. 21:40 -
Mi, 26.06. 21:30 -
Mi, 26.06. 21:00 -
Mi, 26.06. 20:30 -
Mi, 26.06. 20:00 0
Mi, 26.06. 19:30 -
Mi, 26.06. 19:00 -
Link zu dieser Seite / Seite empfehlen

Das Wetter in ...